sensor_id;sensor_type;location;lat;lon;timestamp;pressure;altitude;pressure_sealevel;temperature;humidity
21431;BME280;10876;49.038;10.608;2023-02-20T00:01:30;99308.47;;;7.22;100.00
21431;BME280;10876;49.038;10.608;2023-02-20T00:04:01;99300.03;;;7.23;100.00
21431;BME280;10876;49.038;10.608;2023-02-20T00:06:30;99300.03;;;7.29;100.00
21431;BME280;10876;49.038;10.608;2023-02-20T00:08:57;99299.22;;;7.23;100.00
21431;BME280;10876;49.038;10.608;2023-02-20T00:11:24;99304.91;;;7.27;100.00
21431;BME280;10876;49.038;10.608;2023-02-20T00:13:53;99302.75;;;7.29;100.00
21431;BME280;10876;49.038;10.608;2023-02-20T00:16:20;99309.00;;;7.29;100.00
21431;BME280;10876;49.038;10.608;2023-02-20T00:18:48;99304.91;;;7.27;100.00
21431;BME280;10876;49.038;10.608;2023-02-20T00:21:15;99318.03;;;7.25;100.00
21431;BME280;10876;49.038;10.608;2023-02-20T00:23:43;99324.25;;;7.35;100.00
21431;BME280;10876;49.038;10.608;2023-02-20T00:26:10;99307.63;;;7.32;100.00
21431;BME280;10876;49.038;10.608;2023-02-20T00:28:40;99304.66;;;7.33;100.00
21431;BME280;10876;49.038;10.608;2023-02-20T00:31:12;99309.84;;;7.30;100.00
21431;BME280;10876;49.038;10.608;2023-02-20T00:33:39;99307.09;;;7.35;100.00
21431;BME280;10876;49.038;10.608;2023-02-20T00:36:12;99304.41;;;7.30;100.00
21431;BME280;10876;49.038;10.608;2023-02-20T00:38:41;99307.09;;;7.35;100.00
21431;BME280;10876;49.038;10.608;2023-02-20T00:41:13;99298.41;;;7.33;100.00
21431;BME280;10876;49.038;10.608;2023-02-20T00:43:42;99289.66;;;7.31;100.00
21431;BME280;10876;49.038;10.608;2023-02-20T00:46:13;99294.56;;;7.34;100.00
21431;BME280;10876;49.038;10.608;2023-02-20T00:48:51;99286.41;;;7.29;100.00
21431;BME280;10876;49.038;10.608;2023-02-20T00:51:19;99288.06;;;7.30;100.00
21431;BME280;10876;49.038;10.608;2023-02-20T00:53:46;99284.78;;;7.28;100.00
21431;BME280;10876;49.038;10.608;2023-02-20T00:56:25;99295.13;;;7.31;100.00
21431;BME280;10876;49.038;10.608;2023-02-20T00:58:53;99298.94;;;7.30;100.00
21431;BME280;10876;49.038;10.608;2023-02-20T01:01:25;99294.56;;;7.23;100.00
21431;BME280;10876;49.038;10.608;2023-02-20T01:03:52;99292.13;;;7.27;100.00
21431;BME280;10876;49.038;10.608;2023-02-20T01:06:19;99287.50;;;7.22;100.00
21431;BME280;10876;49.038;10.608;2023-02-20T01:08:46;99281.50;;;7.20;100.00
21431;BME280;10876;49.038;10.608;2023-02-20T01:11:13;99292.41;;;7.26;100.00
21431;BME280;10876;49.038;10.608;2023-02-20T01:13:40;99302.47;;;7.25;100.00
21431;BME280;10876;49.038;10.608;2023-02-20T01:16:07;99312.56;;;7.25;100.00
21431;BME280;10876;49.038;10.608;2023-02-20T01:18:36;99312.00;;;7.28;100.00
21431;BME280;10876;49.038;10.608;2023-02-20T01:21:03;99300.03;;;7.29;100.00
21431;BME280;10876;49.038;10.608;2023-02-20T01:23:36;99300.56;;;7.26;100.00
21431;BME280;10876;49.038;10.608;2023-02-20T01:26:04;99297.28;;;7.23;100.00
21431;BME280;10876;49.038;10.608;2023-02-20T01:28:31;99297.84;;;7.26;100.00
21431;BME280;10876;49.038;10.608;2023-02-20T01:30:58;99284.78;;;7.28;100.00
21431;BME280;10876;49.038;10.608;2023-02-20T01:33:25;99294.81;;;7.32;100.00
21431;BME280;10876;49.038;10.608;2023-02-20T01:35:54;99292.41;;;7.31;100.00
21431;BME280;10876;49.038;10.608;2023-02-20T01:38:21;99300.00;;;7.34;100.00
21431;BME280;10876;49.038;10.608;2023-02-20T01:40:48;99319.63;;;7.36;100.00
21431;BME280;10876;49.038;10.608;2023-02-20T01:43:16;99336.53;;;7.33;100.00
21431;BME280;10876;49.038;10.608;2023-02-20T01:45:44;99338.72;;;7.31;100.00
21431;BME280;10876;49.038;10.608;2023-02-20T01:48:18;99327.00;;;7.30;100.00
21431;BME280;10876;49.038;10.608;2023-02-20T01:50:47;99311.47;;;7.36;100.00
21431;BME280;10876;49.038;10.608;2023-02-20T01:53:20;99318.81;;;7.30;100.00
21431;BME280;10876;49.038;10.608;2023-02-20T01:55:53;99319.09;;;7.29;100.00
21431;BME280;10876;49.038;10.608;2023-02-20T01:58:23;99327.81;;;7.31;100.00
21431;BME280;10876;49.038;10.608;2023-02-20T02:00:52;99313.63;;;7.23;100.00
21431;BME280;10876;49.038;10.608;2023-02-20T02:03:22;99318.56;;;7.21;100.00
21431;BME280;10876;49.038;10.608;2023-02-20T02:05:53;99312.81;;;7.18;100.00
21431;BME280;10876;49.038;10.608;2023-02-20T02:08:25;99313.94;;;7.22;100.00
21431;BME280;10876;49.038;10.608;2023-02-20T02:11:00;99312.00;;;7.22;100.00
21431;BME280;10876;49.038;10.608;2023-02-20T02:13:28;99317.47;;;7.22;100.00
21431;BME280;10876;49.038;10.608;2023-02-20T02:16:07;99307.38;;;7.23;100.00
21431;BME280;10876;49.038;10.608;2023-02-20T02:18:50;99314.19;;;7.26;100.00
21431;BME280;10876;49.038;10.608;2023-02-20T02:22:04;99313.13;;;7.21;100.00
21431;BME280;10876;49.038;10.608;2023-02-20T02:25:03;99300.03;;;7.23;100.00
21431;BME280;10876;49.038;10.608;2023-02-20T02:28:23;99302.47;;;7.20;100.00
21431;BME280;10876;49.038;10.608;2023-02-20T02:34:20;99289.13;;;7.23;100.00
21431;BME280;10876;49.038;10.608;2023-02-20T02:37:01;99276.34;;;7.19;100.00
21431;BME280;10876;49.038;10.608;2023-02-20T02:39:35;99266.50;;;7.18;100.00
21431;BME280;10876;49.038;10.608;2023-02-20T02:42:11;99264.63;;;7.18;100.00
21431;BME280;10876;49.038;10.608;2023-02-20T02:44:43;99262.47;;;7.15;100.00
21431;BME280;10876;49.038;10.608;2023-02-20T02:47:15;99264.34;;;7.25;100.00
21431;BME280;10876;49.038;10.608;2023-02-20T02:49:48;99260.81;;;7.19;100.00
21431;BME280;10876;49.038;10.608;2023-02-20T02:52:20;99256.72;;;7.17;100.00
21431;BME280;10876;49.038;10.608;2023-02-20T02:55:01;99256.97;;;7.20;100.00
21431;BME280;10876;49.038;10.608;2023-02-20T02:57:29;99255.91;;;7.16;100.00
21431;BME280;10876;49.038;10.608;2023-02-20T02:59:59;99252.63;;;7.19;100.00
21431;BME280;10876;49.038;10.608;2023-02-20T03:02:29;99266.25;;;7.19;100.00
21431;BME280;10876;49.038;10.608;2023-02-20T03:04:59;99270.09;;;7.18;100.00
21431;BME280;10876;49.038;10.608;2023-02-20T03:07:30;99262.47;;;7.15;100.00
21431;BME280;10876;49.038;10.608;2023-02-20T03:10:02;99253.75;;;7.18;100.00
21431;BME280;10876;49.038;10.608;2023-02-20T03:12:31;99260.25;;;7.12;100.00
21431;BME280;10876;49.038;10.608;2023-02-20T03:15:03;99251.00;;;7.13;100.00
21431;BME280;10876;49.038;10.608;2023-02-20T03:17:53;99262.44;;;7.20;100.00
21431;BME280;10876;49.038;10.608;2023-02-20T03:20:21;99255.66;;;7.13;100.00
21431;BME280;10876;49.038;10.608;2023-02-20T03:22:53;99262.97;;;7.17;100.00
21431;BME280;10876;49.038;10.608;2023-02-20T03:25:24;99257.00;;;7.10;100.00
21431;BME280;10876;49.038;10.608;2023-02-20T03:27:55;99263.81;;;7.08;100.00
21431;BME280;10876;49.038;10.608;2023-02-20T03:30:27;99267.91;;;7.10;100.00
21431;BME280;10876;49.038;10.608;2023-02-20T03:33:02;99260.25;;;7.12;100.00
21431;BME280;10876;49.038;10.608;2023-02-20T03:35:48;99264.63;;;7.13;100.00
21431;BME280;10876;49.038;10.608;2023-02-20T03:38:37;99270.09;;;7.08;100.00
21431;BME280;10876;49.038;10.608;2023-02-20T03:41:26;99276.63;;;7.02;100.00
21431;BME280;10876;49.038;10.608;2023-02-20T03:44:13;99262.47;;;7.00;100.00
21431;BME280;10876;49.038;10.608;2023-02-20T03:46:43;99274.72;;;6.97;100.00
21431;BME280;10876;49.038;10.608;2023-02-20T03:49:13;99266.84;;;6.96;100.00
21431;BME280;10876;49.038;10.608;2023-02-20T03:51:43;99267.38;;;6.93;100.00
21431;BME280;10876;49.038;10.608;2023-02-20T03:54:27;99248.84;;;6.95;100.00
21431;BME280;10876;49.038;10.608;2023-02-20T03:56:58;99254.84;;;6.92;100.00
21431;BME280;10876;49.038;10.608;2023-02-20T03:59:29;99263.03;;;6.87;100.00
21431;BME280;10876;49.038;10.608;2023-02-20T04:02:01;99253.75;;;6.77;100.00
21431;BME280;10876;49.038;10.608;2023-02-20T04:04:32;99266.84;;;6.75;100.00
21431;BME280;10876;49.038;10.608;2023-02-20T04:07:04;99264.91;;;6.66;100.00
21431;BME280;10876;49.038;10.608;2023-02-20T04:09:36;99272.28;;;6.65;100.00
21431;BME280;10876;49.038;10.608;2023-02-20T04:12:10;99271.19;;;6.61;100.00
21431;BME280;10876;49.038;10.608;2023-02-20T04:14:40;99267.34;;;6.52;100.00
21431;BME280;10876;49.038;10.608;2023-02-20T04:17:13;99279.84;;;6.43;100.00
21431;BME280;10876;49.038;10.608;2023-02-20T04:19:41;99272.22;;;6.40;100.00
21431;BME280;10876;49.038;10.608;2023-02-20T04:22:12;99260.28;;;6.36;100.00
21431;BME280;10876;49.038;10.608;2023-02-20T04:24:45;99266.78;;;6.35;100.00
21431;BME280;10876;49.038;10.608;2023-02-20T04:27:14;99262.16;;;6.35;100.00
21431;BME280;10876;49.038;10.608;2023-02-20T04:29:41;99259.16;;;6.31;100.00
21431;BME280;10876;49.038;10.608;2023-02-20T04:32:09;99258.59;;;6.29;100.00
21431;BME280;10876;49.038;10.608;2023-02-20T04:34:36;99252.88;;;6.26;100.00
21431;BME280;10876;49.038;10.608;2023-02-20T04:37:07;99252.63;;;6.27;100.00
21431;BME280;10876;49.038;10.608;2023-02-20T04:39:35;99248.81;;;6.23;100.00
21431;BME280;10876;49.038;10.608;2023-02-20T04:42:03;99264.03;;;6.19;100.00
21431;BME280;10876;49.038;10.608;2023-02-20T04:44:30;99251.25;;;6.20;100.00
21431;BME280;10876;49.038;10.608;2023-02-20T04:46:59;99259.13;;;6.16;100.00
21431;BME280;10876;49.038;10.608;2023-02-20T04:49:26;99259.66;;;6.08;100.00
21431;BME280;10876;49.038;10.608;2023-02-20T04:51:53;99250.41;;;6.04;100.00
21431;BME280;10876;49.038;10.608;2023-02-20T04:54:21;99268.06;;;6.01;100.00
21431;BME280;10876;49.038;10.608;2023-02-20T04:56:48;99267.53;;;6.04;100.00
21431;BME280;10876;49.038;10.608;2023-02-20T04:59:17;99270.50;;;6.03;100.00
21431;BME280;10876;49.038;10.608;2023-02-20T05:01:44;99265.34;;;5.96;100.00
21431;BME280;10876;49.038;10.608;2023-02-20T05:04:14;99271.03;;;6.00;100.00
21431;BME280;10876;49.038;10.608;2023-02-20T05:06:42;99278.66;;;6.03;100.00
21431;BME280;10876;49.038;10.608;2023-02-20T05:09:09;99271.03;;;6.00;100.00
21431;BME280;10876;49.038;10.608;2023-02-20T05:11:36;99269.97;;;6.06;100.00
21431;BME280;10876;49.038;10.608;2023-02-20T05:14:04;99273.81;;;6.10;100.00
21431;BME280;10876;49.038;10.608;2023-02-20T05:16:33;99267.00;;;6.07;100.00
21431;BME280;10876;49.038;10.608;2023-02-20T05:19:00;99263.44;;;6.02;100.00
21431;BME280;10876;49.038;10.608;2023-02-20T05:21:27;99263.44;;;6.02;100.00
21431;BME280;10876;49.038;10.608;2023-02-20T05:24:11;99257.44;;;5.95;100.00
21431;BME280;10876;49.038;10.608;2023-02-20T05:26:39;99258.75;;;5.92;100.00
21431;BME280;10876;49.038;10.608;2023-02-20T05:29:06;99273.69;;;5.84;100.00
21431;BME280;10876;49.038;10.608;2023-02-20T05:31:38;99271.50;;;5.86;100.00
21431;BME280;10876;49.038;10.608;2023-02-20T05:34:05;99273.19;;;5.98;100.00
21431;BME280;10876;49.038;10.608;2023-02-20T05:36:32;99275.91;;;5.93;100.00
21431;BME280;10876;49.038;10.608;2023-02-20T05:42:18;99271.00;;;5.90;100.00
21431;BME280;10876;49.038;10.608;2023-02-20T05:44:45;99269.94;;;6.01;100.00
21431;BME280;10876;49.038;10.608;2023-02-20T05:47:15;99279.69;;;5.92;100.00
21431;BME280;10876;49.038;10.608;2023-02-20T05:49:42;99280.78;;;5.91;100.00
21431;BME280;10876;49.038;10.608;2023-02-20T05:52:10;99281.34;;;5.93;100.00
21431;BME280;10876;49.038;10.608;2023-02-20T05:54:39;99283.50;;;5.91;100.00
21431;BME280;10876;49.038;10.608;2023-02-20T05:57:07;99279.66;;;5.86;100.00
21431;BME280;10876;49.038;10.608;2023-02-20T05:59:34;99287.91;;;6.02;100.00
21431;BME280;10876;49.038;10.608;2023-02-20T06:02:01;99286.53;;;5.94;100.00
21431;BME280;10876;49.038;10.608;2023-02-20T06:04:29;99281.91;;;6.00;100.00
21431;BME280;10876;49.038;10.608;2023-02-20T06:06:56;99284.63;;;6.00;100.00
21431;BME280;10876;49.038;10.608;2023-02-20T06:09:24;99286.81;;;6.03;100.00
21431;BME280;10876;49.038;10.608;2023-02-20T06:11:52;99289.81;;;6.01;100.00
21431;BME280;10876;49.038;10.608;2023-02-20T06:14:21;99293.06;;;5.93;100.00
21431;BME280;10876;49.038;10.608;2023-02-20T06:16:48;99302.78;;;5.89;100.00
21431;BME280;10876;49.038;10.608;2023-02-20T06:19:19;99311.22;;;5.87;100.00
21431;BME280;10876;49.038;10.608;2023-02-20T06:21:48;99318.25;;;5.83;100.00
21431;BME280;10876;49.038;10.608;2023-02-20T06:24:16;99319.31;;;5.77;100.00
21431;BME280;10876;49.038;10.608;2023-02-20T06:26:43;99317.13;;;5.74;100.00
21431;BME280;10876;49.038;10.608;2023-02-20T06:29:11;99320.66;;;5.75;100.00
21431;BME280;10876;49.038;10.608;2023-02-20T06:31:39;99302.19;;;5.77;100.00
21431;BME280;10876;49.038;10.608;2023-02-20T06:34:06;99313.06;;;5.77;100.00
21431;BME280;10876;49.038;10.608;2023-02-20T06:36:36;99312.56;;;5.85;100.00
21431;BME280;10876;49.038;10.608;2023-02-20T06:39:06;99312.56;;;5.85;100.00
21431;BME280;10876;49.038;10.608;2023-02-20T06:41:34;99310.19;;;5.94;100.00
21431;BME280;10876;49.038;10.608;2023-02-20T06:44:01;99313.75;;;5.99;100.00
21431;BME280;10876;49.038;10.608;2023-02-20T06:46:28;99309.09;;;6.00;100.00
21431;BME280;10876;49.038;10.608;2023-02-20T06:48:56;99311.28;;;6.03;100.00
21431;BME280;10876;49.038;10.608;2023-02-20T06:51:26;99309.69;;;6.07;100.00
21431;BME280;10876;49.038;10.608;2023-02-20T06:53:53;99315.13;;;6.07;100.00
21431;BME280;10876;49.038;10.608;2023-02-20T06:56:25;99327.38;;;6.09;100.00
21431;BME280;10876;49.038;10.608;2023-02-20T06:58:53;99321.69;;;6.16;100.00
21431;BME280;10876;49.038;10.608;2023-02-20T07:01:21;99339.38;;;5.71;100.00
21431;BME280;10876;49.038;10.608;2023-02-20T07:03:49;99341.69;;;5.47;100.00
21431;BME280;10876;49.038;10.608;2023-02-20T07:06:17;99338.38;;;5.40;100.00
21431;BME280;10876;49.038;10.608;2023-02-20T07:08:44;99342.75;;;5.46;100.00
21431;BME280;10876;49.038;10.608;2023-02-20T07:11:12;99330.63;;;5.59;100.00
21431;BME280;10876;49.038;10.608;2023-02-20T07:13:41;99334.97;;;5.60;100.00
21431;BME280;10876;49.038;10.608;2023-02-20T07:16:08;99324.78;;;5.82;100.00
21431;BME280;10876;49.038;10.608;2023-02-20T07:18:35;99320.44;;;5.86;100.00
21431;BME280;10876;49.038;10.608;2023-02-20T07:21:02;99308.03;;;5.96;100.00
21431;BME280;10876;49.038;10.608;2023-02-20T07:23:29;99288.75;;;6.07;100.00
21431;BME280;10876;49.038;10.608;2023-02-20T07:25:56;99296.09;;;6.12;100.00
21431;BME280;10876;49.038;10.608;2023-02-20T07:28:23;99304.81;;;6.14;100.00
21431;BME280;10876;49.038;10.608;2023-02-20T07:30:51;99296.41;;;6.26;100.00
21431;BME280;10876;49.038;10.608;2023-02-20T07:33:18;99290.44;;;6.29;100.00
21431;BME280;10876;49.038;10.608;2023-02-20T07:35:45;99283.72;;;6.83;100.00
21431;BME280;10876;49.038;10.608;2023-02-20T07:38:13;99263.53;;;7.14;100.00
21431;BME280;10876;49.038;10.608;2023-02-20T07:40:40;99272.16;;;7.57;100.00
21431;BME280;10876;49.038;10.608;2023-02-20T07:43:07;99279.25;;;7.58;100.00
21431;BME280;10876;49.038;10.608;2023-02-20T07:45:33;99281.19;;;7.48;100.00
21431;BME280;10876;49.038;10.608;2023-02-20T07:48:02;99295.13;;;7.31;100.00
21431;BME280;10876;49.038;10.608;2023-02-20T07:50:29;99299.47;;;7.32;100.00
21431;BME280;10876;49.038;10.608;2023-02-20T07:52:56;99292.66;;;7.39;100.00
21431;BME280;10876;49.038;10.608;2023-02-20T07:55:23;99297.59;;;7.27;100.00
21431;BME280;10876;49.038;10.608;2023-02-20T07:57:51;99315.56;;;7.33;100.00
21431;BME280;10876;49.038;10.608;2023-02-20T08:00:23;99331.59;;;7.50;100.00
21431;BME280;10876;49.038;10.608;2023-02-20T08:02:51;99325.56;;;7.63;100.00
21431;BME280;10876;49.038;10.608;2023-02-20T08:05:45;99325.47;;;7.99;100.00
21431;BME280;10876;49.038;10.608;2023-02-20T08:08:11;99333.03;;;8.18;100.00
21431;BME280;10876;49.038;10.608;2023-02-20T08:10:38;99344.00;;;8.02;100.00
21431;BME280;10876;49.038;10.608;2023-02-20T08:13:05;99346.25;;;7.90;100.00
21431;BME280;10876;49.038;10.608;2023-02-20T08:15:33;99352.25;;;7.87;100.00
21431;BME280;10876;49.038;10.608;2023-02-20T08:18:00;99353.06;;;7.87;100.00
21431;BME280;10876;49.038;10.608;2023-02-20T08:20:27;99378.97;;;7.80;100.00
21431;BME280;10876;49.038;10.608;2023-02-20T08:22:55;99381.16;;;7.78;100.00
21431;BME280;10876;49.038;10.608;2023-02-20T08:25:25;99393.44;;;7.75;100.00
21431;BME280;10876;49.038;10.608;2023-02-20T08:27:52;99411.69;;;7.80;100.00
21431;BME280;10876;49.038;10.608;2023-02-20T08:30:25;99432.16;;;7.72;100.00
21431;BME280;10876;49.038;10.608;2023-02-20T08:32:53;99451.53;;;7.71;100.00
21431;BME280;10876;49.038;10.608;2023-02-20T08:35:20;99468.44;;;7.73;100.00
21431;BME280;10876;49.038;10.608;2023-02-20T08:37:49;99477.69;;;7.77;100.00
21431;BME280;10876;49.038;10.608;2023-02-20T08:40:22;99482.34;;;7.76;100.00
21431;BME280;10876;49.038;10.608;2023-02-20T08:42:50;99482.59;;;7.80;100.00
21431;BME280;10876;49.038;10.608;2023-02-20T08:45:33;99514.22;;;7.86;100.00
21431;BME280;10876;49.038;10.608;2023-02-20T08:48:00;99510.44;;;7.87;100.00
21431;BME280;10876;49.038;10.608;2023-02-20T08:50:42;99504.66;;;8.04;100.00
21431;BME280;10876;49.038;10.608;2023-02-20T08:53:12;99508.75;;;8.06;100.00
21431;BME280;10876;49.038;10.608;2023-02-20T08:55:44;99541.75;;;8.20;100.00
21431;BME280;10876;49.038;10.608;2023-02-20T08:58:11;99546.41;;;8.20;100.00
21431;BME280;10876;49.038;10.608;2023-02-20T09:00:38;99554.59;;;8.20;100.00
21431;BME280;10876;49.038;10.608;2023-02-20T09:03:05;99549.94;;;8.25;100.00
21431;BME280;10876;49.038;10.608;2023-02-20T09:05:33;99574.22;;;8.27;100.00
21431;BME280;10876;49.038;10.608;2023-02-20T09:08:01;99570.97;;;8.15;100.00
21431;BME280;10876;49.038;10.608;2023-02-20T09:10:28;99607.25;;;8.20;100.00
21431;BME280;10876;49.038;10.608;2023-02-20T09:12:57;99632.66;;;8.16;100.00
21431;BME280;10876;49.038;10.608;2023-02-20T09:15:25;99660.19;;;8.09;100.00
21431;BME280;10876;49.038;10.608;2023-02-20T09:17:52;99668.94;;;8.16;100.00
21431;BME280;10876;49.038;10.608;2023-02-20T09:20:20;99660.50;;;8.43;100.00
21431;BME280;10876;49.038;10.608;2023-02-20T09:22:49;99676.34;;;8.77;100.00
21431;BME280;10876;49.038;10.608;2023-02-20T09:25:17;99692.16;;;8.85;100.00
21431;BME280;10876;49.038;10.608;2023-02-20T09:27:45;99695.16;;;8.89;100.00
21431;BME280;10876;49.038;10.608;2023-02-20T09:30:16;99702.44;;;9.34;100.00
21431;BME280;10876;49.038;10.608;2023-02-20T09:32:45;99716.53;;;9.67;100.00
21431;BME280;10876;49.038;10.608;2023-02-20T09:35:15;99718.31;;;9.97;100.00
21431;BME280;10876;49.038;10.608;2023-02-20T09:37:42;99744.41;;;9.84;100.00
21431;BME280;10876;49.038;10.608;2023-02-20T09:40:12;99752.94;;;9.67;100.00
21431;BME280;10876;49.038;10.608;2023-02-20T09:42:46;99764.09;;;9.81;100.00
21431;BME280;10876;49.038;10.608;2023-02-20T09:45:21;99767.91;;;9.85;100.00
21431;BME280;10876;49.038;10.608;2023-02-20T09:48:03;99786.25;;;9.85;100.00
21431;BME280;10876;49.038;10.608;2023-02-20T09:50:38;99801.81;;;9.95;100.00
21431;BME280;10876;49.038;10.608;2023-02-20T09:53:16;99814.13;;;9.87;100.00
21431;BME280;10876;49.038;10.608;2023-02-20T09:55:46;99820.31;;;10.28;100.00
21431;BME280;10876;49.038;10.608;2023-02-20T09:58:20;99813.69;;;10.34;100.00
21431;BME280;10876;49.038;10.608;2023-02-20T10:00:51;99831.09;;;10.59;100.00
21431;BME280;10876;49.038;10.608;2023-02-20T10:03:26;99847.66;;;10.83;100.00
21431;BME280;10876;49.038;10.608;2023-02-20T10:06:13;99851.19;;;10.89;100.00
21431;BME280;10876;49.038;10.608;2023-02-20T10:08:41;99841.97;;;10.74;100.00
21431;BME280;10876;49.038;10.608;2023-02-20T10:11:15;99844.50;;;10.60;100.00
21431;BME280;10876;49.038;10.608;2023-02-20T10:13:53;99832.03;;;10.83;100.00
21431;BME280;10876;49.038;10.608;2023-02-20T10:16:32;99830.38;;;11.22;100.00
21431;BME280;10876;49.038;10.608;2023-02-20T10:19:09;99825.81;;;11.07;100.00
21431;BME280;10876;49.038;10.608;2023-02-20T10:21:47;99820.66;;;10.61;100.00
21431;BME280;10876;49.038;10.608;2023-02-20T10:24:30;99823.06;;;10.73;100.00
21431;BME280;10876;49.038;10.608;2023-02-20T10:27:11;99809.69;;;10.66;100.00
21431;BME280;10876;49.038;10.608;2023-02-20T10:29:44;99806.22;;;10.90;100.00
21431;BME280;10876;49.038;10.608;2023-02-20T10:32:15;99810.28;;;11.26;100.00
21431;BME280;10876;49.038;10.608;2023-02-20T10:34:50;99797.06;;;10.70;100.00
21431;BME280;10876;49.038;10.608;2023-02-20T10:37:24;99800.13;;;10.98;100.00
21431;BME280;10876;49.038;10.608;2023-02-20T10:39:56;99784.44;;;11.33;100.00
21431;BME280;10876;49.038;10.608;2023-02-20T10:42:30;99774.63;;;11.26;100.00
21431;BME280;10876;49.038;10.608;2023-02-20T10:45:02;99768.72;;;11.14;100.00
21431;BME280;10876;49.038;10.608;2023-02-20T10:47:41;99759.94;;;11.41;100.00
21431;BME280;10876;49.038;10.608;2023-02-20T10:50:15;99753.25;;;11.53;100.00
21431;BME280;10876;49.038;10.608;2023-02-20T10:52:47;99747.59;;;11.68;100.00
21431;BME280;10876;49.038;10.608;2023-02-20T10:55:22;99746.91;;;11.57;100.00
21431;BME280;10876;49.038;10.608;2023-02-20T10:57:55;99728.88;;;11.70;100.00
21431;BME280;10876;49.038;10.608;2023-02-20T11:00:27;99728.91;;;11.94;100.00
21431;BME280;10876;49.038;10.608;2023-02-20T11:03:03;99715.34;;;11.79;100.00
21431;BME280;10876;49.038;10.608;2023-02-20T11:05:36;99712.59;;;11.79;100.00
21431;BME280;10876;49.038;10.608;2023-02-20T11:08:04;99714.75;;;12.25;100.00
21431;BME280;10876;49.038;10.608;2023-02-20T11:10:32;99707.63;;;12.05;100.00
21431;BME280;10876;49.038;10.608;2023-02-20T11:13:00;99705.94;;;12.28;100.00
21431;BME280;10876;49.038;10.608;2023-02-20T11:15:30;99711.56;;;12.17;100.00
21431;BME280;10876;49.038;10.608;2023-02-20T11:17:59;99699.44;;;12.56;100.00
21431;BME280;10876;49.038;10.608;2023-02-20T11:20:39;99687.03;;;12.40;100.00
21431;BME280;10876;49.038;10.608;2023-02-20T11:23:07;99668.09;;;12.38;100.00
21431;BME280;10876;49.038;10.608;2023-02-20T11:25:35;99669.88;;;12.48;100.00
21431;BME280;10876;49.038;10.608;2023-02-20T11:28:08;99664.38;;;12.48;100.00
21431;BME280;10876;49.038;10.608;2023-02-20T11:30:39;99649.69;;;12.72;100.00
21431;BME280;10876;49.038;10.608;2023-02-20T11:33:13;99650.25;;;12.55;100.00
21431;BME280;10876;49.038;10.608;2023-02-20T11:35:41;99645.31;;;12.71;100.00
21431;BME280;10876;49.038;10.608;2023-02-20T11:38:28;99638.19;;;12.70;100.00
21431;BME280;10876;49.038;10.608;2023-02-20T11:41:22;99637.31;;;12.55;100.00
21431;BME280;10876;49.038;10.608;2023-02-20T11:47:26;99613.06;;;12.76;100.00
21431;BME280;10876;49.038;10.608;2023-02-20T11:50:17;99601.41;;;12.66;100.00
21431;BME280;10876;49.038;10.608;2023-02-20T11:52:58;99603.03;;;12.67;100.00
21431;BME280;10876;49.038;10.608;2023-02-20T11:55:27;99592.84;;;12.67;100.00
21431;BME280;10876;49.038;10.608;2023-02-20T12:01:52;99575.69;;;13.17;100.00
21431;BME280;10876;49.038;10.608;2023-02-20T12:04:23;99565.78;;;13.16;100.00
21431;BME280;10876;49.038;10.608;2023-02-20T12:06:54;99561.81;;;13.36;100.00
21431;BME280;10876;49.038;10.608;2023-02-20T12:09:23;99554.78;;;13.43;100.00
21431;BME280;10876;49.038;10.608;2023-02-20T12:11:53;99541.53;;;13.18;100.00
21431;BME280;10876;49.038;10.608;2023-02-20T12:14:22;99537.03;;;13.22;100.00
21431;BME280;10876;49.038;10.608;2023-02-20T12:17:04;99528.59;;;13.32;100.00
21431;BME280;10876;49.038;10.608;2023-02-20T12:19:44;99514.25;;;13.07;100.00
21431;BME280;10876;49.038;10.608;2023-02-20T12:22:19;99509.63;;;13.44;100.00
21431;BME280;10876;49.038;10.608;2023-02-20T12:25:06;99490.63;;;13.06;100.00
21431;BME280;10876;49.038;10.608;2023-02-20T12:27:53;99489.09;;;13.00;100.00
21431;BME280;10876;49.038;10.608;2023-02-20T12:30:38;99478.19;;;13.09;100.00
21431;BME280;10876;49.038;10.608;2023-02-20T12:33:40;99473.06;;;13.30;100.00
21431;BME280;10876;49.038;10.608;2023-02-20T12:36:21;99476.97;;;13.29;100.00
21431;BME280;10876;49.038;10.608;2023-02-20T12:38:57;99460.97;;;13.31;100.00
21431;BME280;10876;49.038;10.608;2023-02-20T12:41:30;99463.28;;;13.24;100.00
21431;BME280;10876;49.038;10.608;2023-02-20T12:44:26;99470.81;;;13.18;100.00
21431;BME280;10876;49.038;10.608;2023-02-20T12:47:03;99470.59;;;13.42;100.00
21431;BME280;10876;49.038;10.608;2023-02-20T12:49:45;99467.09;;;13.28;100.00
21431;BME280;10876;49.038;10.608;2023-02-20T12:55:19;99460.34;;;13.34;100.00
21431;BME280;10876;49.038;10.608;2023-02-20T12:57:52;99467.97;;;13.37;100.00
21431;BME280;10876;49.038;10.608;2023-02-20T13:00:27;99448.41;;;13.25;100.00
21431;BME280;10876;49.038;10.608;2023-02-20T13:03:01;99447.56;;;13.24;100.00
21431;BME280;10876;49.038;10.608;2023-02-20T13:05:33;99453.69;;;13.35;100.00
21431;BME280;10876;49.038;10.608;2023-02-20T13:08:08;99451.13;;;13.02;100.00
21431;BME280;10876;49.038;10.608;2023-02-20T13:10:45;99440.50;;;13.10;100.00
21431;BME280;10876;49.038;10.608;2023-02-20T13:13:14;99432.31;;;13.32;100.00
21431;BME280;10876;49.038;10.608;2023-02-20T13:15:50;99431.06;;;13.24;100.00
21431;BME280;10876;49.038;10.608;2023-02-20T13:18:26;99427.59;;;13.33;100.00
21431;BME280;10876;49.038;10.608;2023-02-20T13:21:01;99425.13;;;13.45;100.00
21431;BME280;10876;49.038;10.608;2023-02-20T13:23:32;99415.19;;;13.21;100.00
21431;BME280;10876;49.038;10.608;2023-02-20T13:26:02;99405.41;;;13.29;100.00
21431;BME280;10876;49.038;10.608;2023-02-20T13:28:50;99400.13;;;13.19;100.00